Time;durP1;ratioP1;P1;durP2;ratioP2;P2;SDS_P1;SDS_P2;PMS_P1;PMS_P2;Temp;Humidity;BMP_temperature;BMP_pressure;BME280_temperature;BME280_humidity;BME280_pressure;Samples;Min_cycle;Max_cycle;Signal;HPM_P1;HPM_P2
2022/10/13 00:00:31;;;;;;;7.20;5.87;;;;;;;;;;5045450;28;20232;-42
2022/10/13 00:03:00;;;;;;;8.47;6.37;;;;;;;;;;5045015;28;20226;-39
2022/10/13 00:05:27;;;;;;;6.00;5.40;;;;;;;;;;5057549;28;20202;-36
2022/10/13 00:07:54;;;;;;;9.30;6.03;;;;;;;;;;5052623;28;20202;-39
2022/10/13 00:10:23;;;;;;;7.27;5.57;;;;;;;;;;5035863;28;20249;-40
2022/10/13 00:12:51;;;;;;;7.47;6.47;;;;;;;;;;5039781;28;20203;-38
2022/10/13 00:15:18;;;;;;;9.97;5.90;;;;;;;;;;5044016;28;20559;-35
2022/10/13 00:17:45;;;;;;;7.63;6.10;;;;;;;;;;5045185;28;20202;-41
2022/10/13 00:20:13;;;;;;;10.07;5.97;;;;;;;;;;5040328;28;20226;-35
2022/10/13 00:22:40;;;;;;;7.97;6.27;;;;;;;;;;5048204;28;20222;-38
2022/10/13 00:25:07;;;;;;;8.80;6.00;;;;;;;;;;5047215;28;20205;-39
2022/10/13 00:27:36;;;;;;;9.53;6.47;;;;;;;;;;5058909;28;20202;-41
2022/10/13 00:30:03;;;;;;;7.50;6.30;;;;;;;;;;5045225;28;20213;-41
2022/10/13 00:32:31;;;;;;;9.17;6.07;;;;;;;;;;5044009;28;20207;-40
2022/10/13 00:34:58;;;;;;;7.57;5.70;;;;;;;;;;5047783;28;20203;-38
2022/10/13 00:37:25;;;;;;;9.30;6.33;;;;;;;;;;5048976;28;20202;-37
2022/10/13 00:39:53;;;;;;;10.17;6.60;;;;;;;;;;5049182;28;20217;-39
2022/10/13 00:42:22;;;;;;;9.80;6.53;;;;;;;;;;5049762;28;20209;-38
2022/10/13 00:45:01;;;;;;;8.50;6.73;;;;;;;;;;5049421;28;20206;-38
2022/10/13 00:47:29;;;;;;;6.40;5.80;;;;;;;;;;5041887;28;20569;-39
2022/10/13 00:49:56;;;;;;;7.83;6.10;;;;;;;;;;5045326;28;20218;-34
2022/10/13 00:52:24;;;;;;;10.23;6.10;;;;;;;;;;5049611;28;20208;-40
2022/10/13 00:54:51;;;;;;;6.50;5.40;;;;;;;;;;5049711;28;20194;-36
2022/10/13 00:57:20;;;;;;;8.10;5.97;;;;;;;;;;5047300;28;20198;-40
2022/10/13 00:59:48;;;;;;;7.97;5.83;;;;;;;;;;5045646;28;20225;-42
2022/10/13 01:02:16;;;;;;;9.23;5.03;;;;;;;;;;5048532;28;20214;-39
2022/10/13 01:04:45;;;;;;;7.20;5.53;;;;;;;;;;5042252;28;20217;-36
2022/10/13 01:07:13;;;;;;;7.50;5.60;;;;;;;;;;5049157;28;20212;-41
2022/10/13 01:09:41;;;;;;;8.53;6.57;;;;;;;;;;5048685;28;20221;-41
2022/10/13 01:12:11;;;;;;;7.53;5.47;;;;;;;;;;5042120;28;20248;-33
2022/10/13 01:14:40;;;;;;;6.30;5.27;;;;;;;;;;5043963;28;20205;-41
2022/10/13 01:17:12;;;;;;;9.27;5.87;;;;;;;;;;5045496;28;20198;-42
2022/10/13 01:20:04;;;;;;;7.13;5.70;;;;;;;;;;5048574;28;20252;-39
2022/10/13 01:22:40;;;;;;;10.97;6.00;;;;;;;;;;5043006;28;20236;-42
2022/10/13 01:25:12;;;;;;;7.57;5.60;;;;;;;;;;5044822;28;20229;-44
2022/10/13 01:27:43;;;;;;;8.53;6.63;;;;;;;;;;5050151;28;20198;-39
2022/10/13 01:30:13;;;;;;;9.07;6.57;;;;;;;;;;5040580;28;20221;-42
2022/10/13 01:32:48;;;;;;;12.57;5.73;;;;;;;;;;5046312;28;20230;-40
2022/10/13 01:35:21;;;;;;;9.17;5.13;;;;;;;;;;5049896;28;20284;-37
2022/10/13 01:37:49;;;;;;;7.43;6.00;;;;;;;;;;5044836;28;20659;-39
2022/10/13 01:40:19;;;;;;;13.43;7.33;;;;;;;;;;5043474;28;20331;-41
2022/10/13 01:42:51;;;;;;;8.77;6.07;;;;;;;;;;5048332;28;20202;-43
2022/10/13 01:45:22;;;;;;;6.77;6.10;;;;;;;;;;5047324;28;20202;-35
2022/10/13 01:47:50;;;;;;;6.80;5.87;;;;;;;;;;5046353;28;20568;-41
2022/10/13 01:50:18;;;;;;;9.07;5.70;;;;;;;;;;5051152;28;20379;-38
2022/10/13 01:52:46;;;;;;;11.27;5.87;;;;;;;;;;5042064;28;20564;-41
2022/10/13 01:55:13;;;;;;;11.47;6.23;;;;;;;;;;5051886;28;20210;-41
2022/10/13 01:57:42;;;;;;;6.97;5.40;;;;;;;;;;5048066;28;20206;-41
2022/10/13 02:00:10;;;;;;;6.47;5.07;;;;;;;;;;5047481;28;20290;-43
2022/10/13 02:02:42;;;;;;;9.10;5.87;;;;;;;;;;5051879;28;20205;-38
2022/10/13 02:05:14;;;;;;;7.63;5.30;;;;;;;;;;5045339;28;20206;-39
2022/10/13 02:07:45;;;;;;;8.13;5.30;;;;;;;;;;5051630;28;20206;-38
2022/10/13 02:10:15;;;;;;;12.80;7.10;;;;;;;;;;5051251;28;20311;-36
2022/10/13 02:12:46;;;;;;;9.33;5.80;;;;;;;;;;5054574;28;20198;-37
2022/10/13 02:15:16;;;;;;;8.50;6.50;;;;;;;;;;5050679;28;20605;-37
2022/10/13 02:17:45;;;;;;;10.70;6.53;;;;;;;;;;5047378;28;20287;-43
2022/10/13 02:20:12;;;;;;;9.20;6.00;;;;;;;;;;5049737;28;20289;-34
2022/10/13 02:22:42;;;;;;;11.47;7.07;;;;;;;;;;5050343;28;20202;-39
2022/10/13 02:25:09;;;;;;;9.23;6.43;;;;;;;;;;5048683;28;20199;-37
2022/10/13 02:27:36;;;;;;;7.33;6.10;;;;;;;;;;5046913;28;20202;-34
2022/10/13 02:30:04;;;;;;;6.87;5.60;;;;;;;;;;5049219;28;20248;-34
2022/10/13 02:32:31;;;;;;;6.80;5.20;;;;;;;;;;5051057;28;20221;-41
2022/10/13 02:35:00;;;;;;;6.30;5.10;;;;;;;;;;5054957;28;20194;-37
2022/10/13 02:37:27;;;;;;;9.23;5.93;;;;;;;;;;5046050;28;20202;-38
2022/10/13 02:39:54;;;;;;;11.03;6.40;;;;;;;;;;5050182;28;20229;-39
2022/10/13 02:42:21;;;;;;;9.93;6.20;;;;;;;;;;5049518;28;20202;-43
2022/10/13 02:44:48;;;;;;;8.33;5.63;;;;;;;;;;5054067;28;20225;-38
2022/10/13 02:47:15;;;;;;;8.83;5.50;;;;;;;;;;5049032;28;20823;-38
2022/10/13 02:49:43;;;;;;;10.47;6.97;;;;;;;;;;5048907;28;20236;-42
2022/10/13 02:52:11;;;;;;;8.67;5.63;;;;;;;;;;5051289;28;20198;-40
2022/10/13 02:54:38;;;;;;;11.17;6.57;;;;;;;;;;5050637;28;20198;-39
2022/10/13 02:57:05;;;;;;;19.17;7.43;;;;;;;;;;5050368;28;20289;-37
2022/10/13 02:59:32;;;;;;;9.67;6.97;;;;;;;;;;5052512;28;20194;-36
2022/10/13 03:02:00;;;;;;;9.77;6.30;;;;;;;;;;5049473;28;20232;-39
2022/10/13 03:04:27;;;;;;;9.83;6.33;;;;;;;;;;5046201;28;20221;-39
2022/10/13 03:06:54;;;;;;;7.27;5.53;;;;;;;;;;5055220;28;20202;-39
2022/10/13 03:09:22;;;;;;;10.23;6.30;;;;;;;;;;5041249;28;20213;-40
2022/10/13 03:11:49;;;;;;;9.50;6.47;;;;;;;;;;5049126;28;20215;-39
2022/10/13 03:14:17;;;;;;;8.87;6.80;;;;;;;;;;5057049;28;20209;-40
2022/10/13 03:16:44;;;;;;;13.57;7.20;;;;;;;;;;5046198;28;20201;-40
2022/10/13 03:19:11;;;;;;;13.83;7.40;;;;;;;;;;5048597;28;20300;-39
2022/10/13 03:21:38;;;;;;;11.93;7.10;;;;;;;;;;5057307;28;20267;-39
2022/10/13 03:24:05;;;;;;;9.97;6.27;;;;;;;;;;5049208;28;20232;-40
2022/10/13 03:26:34;;;;;;;10.87;6.63;;;;;;;;;;5051253;28;20341;-41
2022/10/13 03:29:02;;;;;;;11.10;6.90;;;;;;;;;;5059943;28;20201;-40
2022/10/13 03:31:29;;;;;;;14.00;8.27;;;;;;;;;;5050378;28;20245;-37
2022/10/13 03:33:56;;;;;;;11.20;7.10;;;;;;;;;;5045537;28;20225;-41
2022/10/13 03:36:23;;;;;;;13.07;7.17;;;;;;;;;;5050507;28;20210;-40
2022/10/13 03:38:50;;;;;;;15.20;7.47;;;;;;;;;;5048096;28;20209;-44
2022/10/13 03:41:18;;;;;;;11.87;7.20;;;;;;;;;;5035214;28;20223;-36
2022/10/13 03:43:47;;;;;;;13.13;8.77;;;;;;;;;;5050452;28;20230;-41
2022/10/13 03:48:42;;;;;;;10.43;7.07;;;;;;;;;;5058245;28;20281;-40
2022/10/13 03:51:10;;;;;;;12.43;8.23;;;;;;;;;;5066664;28;20247;-41
2022/10/13 03:53:38;;;;;;;12.60;7.97;;;;;;;;;;5068754;28;20198;-39
2022/10/13 03:56:06;;;;;;;13.73;8.10;;;;;;;;;;5063343;28;20208;-36
2022/10/13 03:58:34;;;;;;;11.87;7.83;;;;;;;;;;5060026;28;20206;-39
2022/10/13 04:01:05;;;;;;;10.67;6.97;;;;;;;;;;5068794;28;20223;-42
2022/10/13 04:03:33;;;;;;;11.83;7.87;;;;;;;;;;5059672;28;20206;-38
2022/10/13 04:06:01;;;;;;;13.80;8.70;;;;;;;;;;5061137;28;20206;-41
2022/10/13 04:08:28;;;;;;;10.17;6.33;;;;;;;;;;5062339;28;20225;-36
2022/10/13 04:10:59;;;;;;;15.80;7.80;;;;;;;;;;5067482;28;20225;-41
2022/10/13 04:13:26;;;;;;;10.43;7.63;;;;;;;;;;5065922;28;20201;-36
2022/10/13 04:15:53;;;;;;;11.33;7.40;;;;;;;;;;5073177;28;20211;-34
2022/10/13 04:18:21;;;;;;;10.53;7.20;;;;;;;;;;5061746;28;20212;-44
2022/10/13 04:20:49;;;;;;;11.07;7.97;;;;;;;;;;5061459;28;20221;-35
2022/10/13 04:23:16;;;;;;;15.57;7.70;;;;;;;;;;5069619;28;20205;-40
2022/10/13 04:25:43;;;;;;;9.20;7.40;;;;;;;;;;5064882;28;20221;-38
2022/10/13 04:28:11;;;;;;;10.67;8.10;;;;;;;;;;5069052;28;20205;-39
2022/10/13 04:30:39;;;;;;;16.10;8.77;;;;;;;;;;5068261;28;20308;-39
2022/10/13 04:33:06;;;;;;;14.20;8.77;;;;;;;;;;5062157;28;20224;-43
2022/10/13 04:35:35;;;;;;;12.83;8.13;;;;;;;;;;5068804;28;20207;-40
2022/10/13 04:38:02;;;;;;;13.30;7.83;;;;;;;;;;5069372;28;20197;-44
2022/10/13 04:40:29;;;;;;;11.73;7.63;;;;;;;;;;5063989;28;20225;-42
2022/10/13 04:42:56;;;;;;;12.47;7.27;;;;;;;;;;5061598;28;20231;-40
2022/10/13 04:45:23;;;;;;;10.97;7.90;;;;;;;;;;5064012;28;20304;-41
2022/10/13 04:47:51;;;;;;;11.13;8.10;;;;;;;;;;5056241;28;20205;-37
2022/10/13 04:50:18;;;;;;;12.50;7.87;;;;;;;;;;5065199;28;20278;-38
2022/10/13 04:52:47;;;;;;;10.30;7.53;;;;;;;;;;5069028;28;20204;-38
2022/10/13 04:55:14;;;;;;;11.20;7.67;;;;;;;;;;5061451;28;20215;-38
2022/10/13 04:57:41;;;;;;;11.77;8.03;;;;;;;;;;5056353;28;20650;-37
2022/10/13 05:00:09;;;;;;;10.67;7.17;;;;;;;;;;5067310;28;20609;-39
2022/10/13 05:02:36;;;;;;;9.57;6.87;;;;;;;;;;5060826;28;20198;-36
2022/10/13 05:05:03;;;;;;;13.83;8.13;;;;;;;;;;5061193;28;20217;-45
2022/10/13 05:07:31;;;;;;;10.43;7.13;;;;;;;;;;5064600;28;20292;-37
2022/10/13 05:09:59;;;;;;;9.53;7.70;;;;;;;;;;5067511;28;20209;-40
2022/10/13 05:12:27;;;;;;;9.40;6.90;;;;;;;;;;5069610;28;20201;-38
2022/10/13 05:14:54;;;;;;;13.63;8.10;;;;;;;;;;5056891;28;20197;-40
2022/10/13 05:17:21;;;;;;;12.20;8.13;;;;;;;;;;5064841;28;20200;-35
2022/10/13 05:19:49;;;;;;;12.53;8.80;;;;;;;;;;5067426;28;20303;-41
2022/10/13 05:22:16;;;;;;;8.80;7.07;;;;;;;;;;5063920;28;20205;-38
2022/10/13 05:24:43;;;;;;;9.53;7.60;;;;;;;;;;5072748;28;20220;-37
2022/10/13 05:27:13;;;;;;;10.80;7.47;;;;;;;;;;5074628;28;20205;-38
2022/10/13 05:29:41;;;;;;;12.00;7.47;;;;;;;;;;5068530;28;20223;-32
2022/10/13 05:32:08;;;;;;;11.63;7.87;;;;;;;;;;5067933;28;20200;-43
2022/10/13 05:34:35;;;;;;;12.17;8.03;;;;;;;;;;5066107;28;20189;-40
2022/10/13 05:37:03;;;;;;;11.47;7.53;;;;;;;;;;5072592;28;20201;-40
2022/10/13 05:39:30;;;;;;;10.07;7.43;;;;;;;;;;5075106;28;20205;-37
2022/10/13 05:41:58;;;;;;;11.67;7.20;;;;;;;;;;5074160;28;20197;-42
2022/10/13 05:44:27;;;;;;;11.03;7.87;;;;;;;;;;5075557;28;20212;-37
2022/10/13 05:46:54;;;;;;;14.57;8.03;;;;;;;;;;5075462;28;20278;-42
2022/10/13 05:49:21;;;;;;;13.13;8.43;;;;;;;;;;5065517;28;20201;-35
2022/10/13 05:51:49;;;;;;;14.23;7.83;;;;;;;;;;5075608;28;20215;-37
2022/10/13 05:54:18;;;;;;;12.53;8.00;;;;;;;;;;5075593;28;20294;-38
2022/10/13 05:56:47;;;;;;;10.73;7.30;;;;;;;;;;5070772;28;20284;-42
2022/10/13 05:59:19;;;;;;;10.27;6.50;;;;;;;;;;5060200;28;20206;-39
2022/10/13 06:01:48;;;;;;;14.13;8.43;;;;;;;;;;5075793;28;20193;-36
2022/10/13 06:04:19;;;;;;;10.10;6.87;;;;;;;;;;5067681;28;20229;-37
2022/10/13 06:06:47;;;;;;;11.60;7.63;;;;;;;;;;5062368;28;20201;-41
2022/10/13 06:09:15;;;;;;;11.47;6.50;;;;;;;;;;5074966;28;20231;-37
2022/10/13 06:11:42;;;;;;;8.77;6.73;;;;;;;;;;5075094;28;20257;-38
2022/10/13 06:14:09;;;;;;;13.00;7.23;;;;;;;;;;5073737;28;20244;-37
2022/10/13 06:16:36;;;;;;;12.87;8.20;;;;;;;;;;5061263;28;20208;-36
2022/10/13 06:19:05;;;;;;;12.57;8.57;;;;;;;;;;5066442;28;20204;-34
2022/10/13 06:21:35;;;;;;;10.33;7.70;;;;;;;;;;5066808;28;20267;-38
2022/10/13 06:24:02;;;;;;;11.03;7.83;;;;;;;;;;5074084;28;20220;-33
2022/10/13 06:26:29;;;;;;;11.53;7.87;;;;;;;;;;5068858;28;20196;-37
2022/10/13 06:28:57;;;;;;;12.07;7.33;;;;;;;;;;5069011;28;20203;-38
2022/10/13 06:31:24;;;;;;;8.70;6.20;;;;;;;;;;5064217;28;20225;-40
2022/10/13 06:33:51;;;;;;;11.33;7.23;;;;;;;;;;5058789;28;20202;-40
2022/10/13 06:36:20;;;;;;;13.87;9.53;;;;;;;;;;5064485;28;20197;-37
2022/10/13 06:38:48;;;;;;;10.60;8.00;;;;;;;;;;5062783;28;20198;-40
2022/10/13 06:41:15;;;;;;;11.40;7.70;;;;;;;;;;5069119;28;20342;-36
2022/10/13 06:43:43;;;;;;;12.80;8.20;;;;;;;;;;5072133;28;20205;-35
2022/10/13 06:46:11;;;;;;;11.13;8.07;;;;;;;;;;5068172;28;20225;-38
2022/10/13 06:48:39;;;;;;;15.57;8.73;;;;;;;;;;5064582;28;20201;-42
2022/10/13 06:51:08;;;;;;;10.17;7.73;;;;;;;;;;5070223;28;20213;-38
2022/10/13 06:53:39;;;;;;;11.37;8.27;;;;;;;;;;5070814;28;20204;-36
2022/10/13 06:56:09;;;;;;;11.73;9.10;;;;;;;;;;5060115;28;20190;-39
2022/10/13 06:58:37;;;;;;;15.20;8.90;;;;;;;;;;5060723;28;20197;-37
2022/10/13 07:01:04;;;;;;;10.03;8.20;;;;;;;;;;5071888;28;20218;-40
2022/10/13 07:03:32;;;;;;;9.60;7.10;;;;;;;;;;5063690;28;20197;-42
2022/10/13 07:06:01;;;;;;;10.53;7.73;;;;;;;;;;5070967;28;20221;-39
2022/10/13 07:08:31;;;;;;;10.23;7.70;;;;;;;;;;5069692;28;20197;-37
2022/10/13 07:10:59;;;;;;;15.53;10.63;;;;;;;;;;5067815;28;20232;-41
2022/10/13 07:13:26;;;;;;;20.53;10.30;;;;;;;;;;5065743;28;20251;-41
2022/10/13 07:15:54;;;;;;;13.33;9.00;;;;;;;;;;5070084;28;20205;-42
2022/10/13 07:18:21;;;;;;;13.47;9.97;;;;;;;;;;5067153;28;20230;-44
2022/10/13 07:20:49;;;;;;;13.97;9.33;;;;;;;;;;5065767;28;20257;-38
2022/10/13 07:23:16;;;;;;;11.63;8.70;;;;;;;;;;5070512;28;20207;-41
2022/10/13 07:25:43;;;;;;;11.07;8.50;;;;;;;;;;5070139;28;20213;-43
2022/10/13 07:28:12;;;;;;;18.13;8.97;;;;;;;;;;5069426;28;20201;-42
2022/10/13 07:30:39;;;;;;;15.47;9.00;;;;;;;;;;5056117;28;20252;-41
2022/10/13 07:33:07;;;;;;;14.57;9.20;;;;;;;;;;5064149;28;20201;-40
2022/10/13 07:35:34;;;;;;;14.97;9.40;;;;;;;;;;5062983;28;20205;-37
2022/10/13 07:38:02;;;;;;;13.50;9.27;;;;;;;;;;5068643;28;20201;-41
2022/10/13 07:40:29;;;;;;;12.53;9.40;;;;;;;;;;5070146;28;20251;-38
2022/10/13 07:42:57;;;;;;;13.37;9.77;;;;;;;;;;5066545;28;20197;-37
2022/10/13 07:45:26;;;;;;;13.73;8.73;;;;;;;;;;5067643;28;20225;-35
2022/10/13 07:47:53;;;;;;;14.00;9.50;;;;;;;;;;5068821;28;20282;-36
2022/10/13 07:50:20;;;;;;;13.37;9.43;;;;;;;;;;5068926;28;20221;-41
2022/10/13 07:52:47;;;;;;;10.90;8.07;;;;;;;;;;5070941;28;20203;-37
2022/10/13 07:55:15;;;;;;;14.20;9.20;;;;;;;;;;5070189;28;20204;-40
2022/10/13 07:57:44;;;;;;;12.43;8.83;;;;;;;;;;5067171;28;20205;-40
2022/10/13 08:00:12;;;;;;;13.67;9.57;;;;;;;;;;5064208;28;20220;-37
2022/10/13 08:02:41;;;;;;;13.83;10.40;;;;;;;;;;5055896;28;20198;-37
2022/10/13 08:05:09;;;;;;;16.27;9.90;;;;;;;;;;5067805;28;20229;-38
2022/10/13 08:07:38;;;;;;;12.63;8.97;;;;;;;;;;5069375;28;20197;-36
2022/10/13 08:10:05;;;;;;;13.03;8.47;;;;;;;;;;5070129;28;20311;-35
2022/10/13 08:12:38;;;;;;;16.90;9.53;;;;;;;;;;5065802;28;20197;-39
2022/10/13 08:15:06;;;;;;;14.17;10.20;;;;;;;;;;5066344;28;20201;-38
2022/10/13 08:17:33;;;;;;;14.30;9.30;;;;;;;;;;5065014;28;20197;-39
2022/10/13 08:20:02;;;;;;;14.27;9.93;;;;;;;;;;5066462;28;20217;-37
2022/10/13 08:22:29;;;;;;;13.77;10.20;;;;;;;;;;5065732;28;20190;-36
2022/10/13 08:24:56;;;;;;;15.47;10.43;;;;;;;;;;5069318;28;20242;-39
2022/10/13 08:27:25;;;;;;;17.17;9.77;;;;;;;;;;5067904;28;20213;-34
2022/10/13 08:29:53;;;;;;;13.50;8.70;;;;;;;;;;5067142;28;20228;-35
2022/10/13 08:32:21;;;;;;;16.23;9.50;;;;;;;;;;5068512;28;20217;-40
2022/10/13 08:34:48;;;;;;;11.37;8.37;;;;;;;;;;5067274;28;20197;-37
2022/10/13 08:37:18;;;;;;;12.17;8.93;;;;;;;;;;5073081;28;20233;-39
2022/10/13 08:39:45;;;;;;;13.10;8.73;;;;;;;;;;5072604;28;20316;-42
2022/10/13 08:42:14;;;;;;;16.47;8.30;;;;;;;;;;5064934;28;20205;-38
2022/10/13 08:44:45;;;;;;;13.90;9.27;;;;;;;;;;5072331;28;20251;-39
2022/10/13 08:47:13;;;;;;;12.73;8.50;;;;;;;;;;5070629;28;20213;-39
2022/10/13 08:49:41;;;;;;;14.20;9.33;;;;;;;;;;5065903;28;20267;-35
2022/10/13 08:52:14;;;;;;;14.67;9.43;;;;;;;;;;5073282;28;20255;-40
2022/10/13 08:54:42;;;;;;;12.63;9.03;;;;;;;;;;5072647;28;20229;-41
2022/10/13 08:57:10;;;;;;;14.67;8.40;;;;;;;;;;5069289;28;20557;-34
2022/10/13 08:59:40;;;;;;;13.60;9.27;;;;;;;;;;5070464;28;20288;-39
2022/10/13 09:02:12;;;;;;;17.47;10.00;;;;;;;;;;5068169;28;20198;-42
2022/10/13 09:04:41;;;;;;;13.57;9.67;;;;;;;;;;5068357;28;20197;-37
2022/10/13 09:07:12;;;;;;;14.67;8.93;;;;;;;;;;5071766;28;20217;-38
2022/10/13 09:09:40;;;;;;;13.63;10.10;;;;;;;;;;5070289;28;20222;-41
2022/10/13 09:12:11;;;;;;;16.90;10.90;;;;;;;;;;5064803;28;20208;-38
2022/10/13 09:14:38;;;;;;;14.53;10.00;;;;;;;;;;5071665;28;20213;-38
2022/10/13 09:17:16;;;;;;;18.17;10.50;;;;;;;;;;5070621;28;20261;-31
2022/10/13 09:19:43;;;;;;;13.27;8.90;;;;;;;;;;5068148;28;20216;-40
2022/10/13 09:22:16;;;;;;;11.60;8.43;;;;;;;;;;5071904;28;20204;-35
2022/10/13 09:24:43;;;;;;;12.73;8.90;;;;;;;;;;5069829;28;20197;-38
2022/10/13 09:27:15;;;;;;;16.17;10.70;;;;;;;;;;5062229;28;20304;-38
2022/10/13 09:29:43;;;;;;;14.87;10.37;;;;;;;;;;5071034;28;20217;-36
2022/10/13 09:32:16;;;;;;;16.37;10.57;;;;;;;;;;5069724;28;20206;-36
2022/10/13 09:34:44;;;;;;;14.57;10.23;;;;;;;;;;5064135;28;20284;-38
2022/10/13 09:37:18;;;;;;;11.90;9.77;;;;;;;;;;5070487;28;20201;-40
2022/10/13 09:39:46;;;;;;;16.90;11.17;;;;;;;;;;5051115;28;20222;-40
2022/10/13 09:42:26;;;;;;;16.63;10.47;;;;;;;;;;5054533;28;20288;-34
2022/10/13 09:44:57;;;;;;;12.50;9.73;;;;;;;;;;5059755;28;20212;-38
2022/10/13 09:47:25;;;;;;;16.07;10.67;;;;;;;;;;5068624;28;20232;-38
2022/10/13 09:49:59;;;;;;;15.57;10.03;;;;;;;;;;5067284;28;20230;-33
2022/10/13 09:52:26;;;;;;;21.87;11.33;;;;;;;;;;5072793;28;20191;-40
2022/10/13 09:54:56;;;;;;;16.63;11.53;;;;;;;;;;5072065;28;20296;-39
2022/10/13 09:57:29;;;;;;;15.40;9.73;;;;;;;;;;5068812;28;20208;-44
2022/10/13 10:00:02;;;;;;;13.17;9.70;;;;;;;;;;5068857;28;20217;-40
2022/10/13 10:02:32;;;;;;;14.60;9.87;;;;;;;;;;5317736;22;21168;-32
2022/10/13 10:05:02;;;;;;;12.50;10.13;;;;;;;;;;5007006;28;20204;-30
2022/10/13 10:07:32;;;;;;;16.90;10.60;;;;;;;;;;5008959;28;20223;-33
2022/10/13 10:10:01;;;;;;;15.73;10.00;;;;;;;;;;5011387;28;20233;-33
2022/10/13 10:12:33;;;;;;;18.23;11.33;;;;;;;;;;4998602;28;20207;-33
2022/10/13 10:15:01;;;;;;;19.23;9.83;;;;;;;;;;5001332;28;20282;-34
2022/10/13 10:17:30;;;;;;;15.73;10.80;;;;;;;;;;5008700;28;20204;-32
2022/10/13 10:20:07;;;;;;;15.90;10.80;;;;;;;;;;5010028;28;20225;-33
2022/10/13 10:22:40;;;;;;;17.17;10.27;;;;;;;;;;5012051;28;20291;-30
2022/10/13 10:25:19;;;;;;;16.23;11.20;;;;;;;;;;5008904;28;20216;-30
2022/10/13 10:27:53;;;;;;;14.80;10.47;;;;;;;;;;5005882;28;20397;-34
2022/10/13 10:30:20;;;;;;;14.93;10.43;;;;;;;;;;5012587;28;20223;-33
2022/10/13 10:32:49;;;;;;;12.23;9.57;;;;;;;;;;5005441;28;20208;-30
2022/10/13 10:35:19;;;;;;;17.53;10.10;;;;;;;;;;5010792;28;20205;-31
2022/10/13 10:38:03;;;;;;;17.17;10.83;;;;;;;;;;5007288;28;20203;-33
2022/10/13 10:40:35;;;;;;;15.13;10.53;;;;;;;;;;5012733;28;20469;-31
2022/10/13 10:43:18;;;;;;;15.70;10.80;;;;;;;;;;5005121;28;20202;-31
2022/10/13 10:45:48;;;;;;;16.00;10.13;;;;;;;;;;4991205;28;20231;-31
2022/10/13 10:48:21;;;;;;;13.57;10.90;;;;;;;;;;5005224;28;20215;-32
2022/10/13 10:50:49;;;;;;;16.07;10.40;;;;;;;;;;5012406;28;20227;-33
2022/10/13 10:53:20;;;;;;;16.63;10.17;;;;;;;;;;5012973;28;20230;-35
2022/10/13 10:55:51;;;;;;;15.40;10.70;;;;;;;;;;5009128;28;20195;-33
2022/10/13 10:58:23;;;;;;;14.30;10.07;;;;;;;;;;5009924;28;20207;-34
2022/10/13 11:00:56;;;;;;;13.47;10.03;;;;;;;;;;5012462;28;20266;-31
2022/10/13 11:03:30;;;;;;;18.33;10.47;;;;;;;;;;5010694;28;20219;-33
2022/10/13 11:06:02;;;;;;;14.20;9.80;;;;;;;;;;5012480;28;20268;-34
2022/10/13 11:08:30;;;;;;;16.87;10.77;;;;;;;;;;5008765;28;20199;-35
2022/10/13 11:11:16;;;;;;;17.40;10.87;;;;;;;;;;5005546;28;20226;-29
2022/10/13 11:13:51;;;;;;;12.67;10.00;;;;;;;;;;5005581;28;20196;-35
2022/10/13 11:16:28;;;;;;;18.97;9.83;;;;;;;;;;5011973;28;20209;-33
2022/10/13 11:19:04;;;;;;;14.90;10.30;;;;;;;;;;5006452;28;20208;-30
2022/10/13 11:21:46;;;;;;;15.13;10.37;;;;;;;;;;5009740;28;20219;-29
2022/10/13 11:24:28;;;;;;;17.83;10.10;;;;;;;;;;5008547;28;20199;-32
2022/10/13 11:26:56;;;;;;;11.77;9.50;;;;;;;;;;5009546;28;20270;-30
2022/10/13 11:29:43;;;;;;;15.73;10.13;;;;;;;;;;5010562;28;20205;-33
2022/10/13 11:32:41;;;;;;;14.57;9.40;;;;;;;;;;5008857;28;20311;-34
2022/10/13 11:35:20;;;;;;;16.13;9.80;;;;;;;;;;5011146;28;20214;-31
2022/10/13 11:37:52;;;;;;;20.97;9.90;;;;;;;;;;5014808;28;20271;-32
2022/10/13 11:40:24;;;;;;;20.70;9.43;;;;;;;;;;5011760;28;20242;-31
2022/10/13 11:43:24;;;;;;;13.97;9.70;;;;;;;;;;4993534;28;20206;-31
2022/10/13 11:45:58;;;;;;;10.73;8.70;;;;;;;;;;4925226;29;20215;-31
2022/10/13 11:48:43;;;;;;;12.47;9.10;;;;;;;;;;4991141;28;20207;-31
2022/10/13 11:51:19;;;;;;;15.43;9.10;;;;;;;;;;5009031;28;20230;-33
2022/10/13 11:53:51;;;;;;;11.83;8.77;;;;;;;;;;5011631;28;20193;-32
2022/10/13 11:56:20;;;;;;;12.20;8.70;;;;;;;;;;5003120;28;20216;-33
2022/10/13 11:58:47;;;;;;;15.50;8.43;;;;;;;;;;5009718;28;20207;-31
2022/10/13 12:01:15;;;;;;;15.43;9.47;;;;;;;;;;5010483;28;20238;-31
2022/10/13 12:03:43;;;;;;;16.47;9.37;;;;;;;;;;4999820;28;20215;-34
2022/10/13 12:06:25;;;;;;;13.13;8.70;;;;;;;;;;5009401;28;20227;-32
2022/10/13 12:08:52;;;;;;;12.53;8.33;;;;;;;;;;5009244;28;20295;-31
2022/10/13 12:11:24;;;;;;;13.33;7.67;;;;;;;;;;4998791;28;20327;-31
2022/10/13 12:13:52;;;;;;;13.17;7.30;;;;;;;;;;4999801;28;20211;-32
2022/10/13 12:16:19;;;;;;;10.83;7.23;;;;;;;;;;5009113;28;20250;-31
2022/10/13 12:18:49;;;;;;;10.67;8.30;;;;;;;;;;4998013;28;20213;-32
2022/10/13 12:21:18;;;;;;;10.70;7.20;;;;;;;;;;5007440;28;20223;-32
2022/10/13 12:23:47;;;;;;;15.17;7.30;;;;;;;;;;5009070;28;20205;-33
2022/10/13 12:26:16;;;;;;;11.63;7.33;;;;;;;;;;5007788;28;20231;-30
2022/10/13 12:28:46;;;;;;;8.50;7.03;;;;;;;;;;5001346;28;20272;-34
2022/10/13 12:31:18;;;;;;;10.33;7.03;;;;;;;;;;5008871;28;20225;-33
2022/10/13 12:33:52;;;;;;;10.10;8.33;;;;;;;;;;5000514;28;20215;-30
2022/10/13 12:36:20;;;;;;;12.87;7.27;;;;;;;;;;5008847;28;20517;-34
2022/10/13 12:38:50;;;;;;;10.27;7.33;;;;;;;;;;5007167;28;20210;-29
2022/10/13 12:41:18;;;;;;;13.93;7.20;;;;;;;;;;5002074;28;20228;-33
2022/10/13 12:43:46;;;;;;;12.00;6.30;;;;;;;;;;5002887;28;20206;-31
2022/10/13 12:46:13;;;;;;;9.07;6.40;;;;;;;;;;5008138;28;20227;-36
2022/10/13 12:48:43;;;;;;;14.70;6.83;;;;;;;;;;5002042;28;20199;-29
2022/10/13 12:51:19;;;;;;;12.07;6.77;;;;;;;;;;5008421;28;20311;-32
2022/10/13 12:53:47;;;;;;;10.27;7.07;;;;;;;;;;5009597;28;20293;-33
2022/10/13 12:56:27;;;;;;;10.60;6.77;;;;;;;;;;5009244;28;20289;-32
2022/10/13 12:58:54;;;;;;;8.47;6.53;;;;;;;;;;5004538;28;20205;-33
2022/10/13 13:01:26;;;;;;;10.57;6.93;;;;;;;;;;5008708;28;20317;-31
2022/10/13 13:03:55;;;;;;;12.37;7.30;;;;;;;;;;4967687;28;1108573;-35
2022/10/13 13:06:27;;;;;;;10.50;7.30;;;;;;;;;;5008360;28;20215;-36
2022/10/13 13:09:18;;;;;;;10.13;6.87;;;;;;;;;;5009318;28;20245;-30
2022/10/13 13:11:47;;;;;;;12.87;7.47;;;;;;;;;;5002556;28;20205;-30
2022/10/13 13:14:24;;;;;;;9.97;6.77;;;;;;;;;;5002965;28;20215;-30
2022/10/13 13:17:04;;;;;;;10.80;7.67;;;;;;;;;;5002742;28;20313;-33
2022/10/13 13:19:32;;;;;;;14.33;7.37;;;;;;;;;;5002713;28;20205;-32
2022/10/13 13:21:59;;;;;;;12.47;7.77;;;;;;;;;;5008944;28;20200;-35
2022/10/13 13:24:26;;;;;;;12.67;7.33;;;;;;;;;;5009951;28;20211;-30
2022/10/13 13:26:55;;;;;;;10.43;7.87;;;;;;;;;;5006199;28;20218;-32
2022/10/13 13:29:22;;;;;;;11.53;7.83;;;;;;;;;;5008942;28;20298;-32
2022/10/13 13:31:49;;;;;;;13.37;7.53;;;;;;;;;;5009507;28;20199;-34
2022/10/13 13:34:16;;;;;;;12.03;7.47;;;;;;;;;;5000474;28;20207;-32
2022/10/13 13:36:43;;;;;;;10.77;7.27;;;;;;;;;;4997397;28;20227;-35
2022/10/13 13:39:14;;;;;;;12.67;8.27;;;;;;;;;;5000137;28;20209;-33
2022/10/13 13:41:41;;;;;;;12.00;7.50;;;;;;;;;;5008688;28;20322;-34
2022/10/13 13:44:10;;;;;;;10.00;7.33;;;;;;;;;;5011589;28;20205;-33
2022/10/13 13:46:37;;;;;;;12.27;8.50;;;;;;;;;;5007051;28;20210;-32
2022/10/13 13:49:05;;;;;;;13.70;8.00;;;;;;;;;;5007197;28;20209;-35
2022/10/13 13:51:32;;;;;;;10.07;7.80;;;;;;;;;;5012816;28;20252;-31
2022/10/13 13:53:59;;;;;;;15.40;7.40;;;;;;;;;;5014135;28;20293;-35
2022/10/13 13:56:26;;;;;;;11.67;8.50;;;;;;;;;;5008406;28;20212;-28
2022/10/13 13:58:53;;;;;;;11.83;7.97;;;;;;;;;;5005904;28;20316;-31
2022/10/13 14:01:23;;;;;;;13.47;8.10;;;;;;;;;;5012927;28;20261;-32
2022/10/13 14:03:50;;;;;;;13.33;8.33;;;;;;;;;;5003426;28;20223;-31
2022/10/13 14:06:18;;;;;;;12.07;8.73;;;;;;;;;;5004959;28;20211;-31
2022/10/13 14:08:46;;;;;;;15.03;8.17;;;;;;;;;;5012646;28;20211;-35
2022/10/13 14:11:13;;;;;;;14.67;9.17;;;;;;;;;;5013185;28;20262;-30
2022/10/13 14:13:40;;;;;;;13.73;8.93;;;;;;;;;;5004746;28;20215;-30
2022/10/13 14:16:07;;;;;;;12.73;8.80;;;;;;;;;;5012053;28;20282;-33
2022/10/13 14:18:36;;;;;;;14.03;8.73;;;;;;;;;;5005396;28;20207;-31
2022/10/13 14:21:06;;;;;;;13.93;8.70;;;;;;;;;;5012578;28;20250;-32
2022/10/13 14:23:33;;;;;;;13.07;8.07;;;;;;;;;;5012144;28;20207;-36
2022/10/13 14:26:00;;;;;;;14.17;8.40;;;;;;;;;;5011206;28;20201;-29
2022/10/13 14:28:27;;;;;;;11.10;8.30;;;;;;;;;;5006761;28;20554;-31
2022/10/13 14:30:55;;;;;;;15.97;8.33;;;;;;;;;;5010200;28;20338;-32
2022/10/13 14:33:22;;;;;;;13.20;8.03;;;;;;;;;;5003385;28;20215;-34
2022/10/13 14:35:51;;;;;;;13.07;8.57;;;;;;;;;;5011602;28;20207;-34
2022/10/13 14:38:18;;;;;;;13.80;9.23;;;;;;;;;;5015133;28;20238;-32
2022/10/13 14:40:45;;;;;;;12.23;8.60;;;;;;;;;;5013589;28;20235;-31
2022/10/13 14:43:12;;;;;;;11.07;8.50;;;;;;;;;;5004317;28;20294;-32
2022/10/13 14:45:39;;;;;;;14.37;9.07;;;;;;;;;;5000458;28;20278;-28